createdAt,value
2022-10-05T00:01:24.509Z,2.10
2022-10-05T00:04:16.104Z,2.60
2022-10-05T00:06:52.026Z,2.10
2022-10-05T00:09:31.342Z,2.40
2022-10-05T00:12:00.720Z,2.50
2022-10-05T00:14:36.342Z,2.30
2022-10-05T00:17:08.783Z,2.20
2022-10-05T00:19:42.923Z,2.10
2022-10-05T00:22:21.504Z,2.30
2022-10-05T00:24:57.406Z,2.50
2022-10-05T00:27:39.473Z,2.00
2022-10-05T00:30:17.816Z,1.80
2022-10-05T00:32:47.973Z,2.10
2022-10-05T00:35:23.448Z,2.80
2022-10-05T00:37:56.044Z,2.50
2022-10-05T00:40:51.933Z,2.80
2022-10-05T00:43:50.611Z,1.90
2022-10-05T00:46:48.619Z,2.40
2022-10-05T00:49:30.905Z,2.10
2022-10-05T00:52:25.082Z,2.40
2022-10-05T00:55:22.853Z,2.10
2022-10-05T00:58:03.210Z,3.00
2022-10-05T01:00:44.491Z,2.30
2022-10-05T01:03:53.720Z,2.50
2022-10-05T01:06:52.522Z,2.90
2022-10-05T01:09:22.455Z,2.60
2022-10-05T01:12:06.392Z,2.60
2022-10-05T01:14:52.882Z,2.40
2022-10-05T01:17:45.644Z,2.60
2022-10-05T01:20:33.672Z,3.30
2022-10-05T01:23:31.243Z,2.60
2022-10-05T01:26:22.445Z,2.00
2022-10-05T01:29:12.955Z,2.30
2022-10-05T01:31:53.893Z,2.80
2022-10-05T01:37:57.953Z,2.20
2022-10-05T01:40:49.895Z,2.30
2022-10-05T01:43:33.502Z,1.90
2022-10-05T01:46:40.003Z,2.80
2022-10-05T01:49:15.322Z,2.20
2022-10-05T01:52:15.163Z,2.40
2022-10-05T01:54:45.934Z,3.30
2022-10-05T01:57:46.130Z,3.20
2022-10-05T02:00:22.635Z,2.30
2022-10-05T02:03:09.613Z,2.60
2022-10-05T02:06:18.725Z,2.90
2022-10-05T02:09:14.141Z,2.90
2022-10-05T02:11:51.956Z,3.20
2022-10-05T02:14:35.792Z,3.30
2022-10-05T02:17:25.280Z,3.60
2022-10-05T02:20:09.822Z,4.10
2022-10-05T02:23:45.892Z,4.90
2022-10-05T02:26:22.866Z,3.20
2022-10-05T02:29:03.620Z,4.10
2022-10-05T02:31:55.007Z,3.40
2022-10-05T02:34:41.169Z,4.30
2022-10-05T02:40:06.172Z,3.40
2022-10-05T02:42:52.689Z,3.40
2022-10-05T02:45:46.430Z,3.30
2022-10-05T02:48:31.455Z,3.50
2022-10-05T02:51:18.742Z,2.90
2022-10-05T02:54:03.705Z,3.20
2022-10-05T02:56:47.052Z,3.40
2022-10-05T02:59:45.413Z,3.50
2022-10-05T03:02:44.425Z,3.00
2022-10-05T03:05:46.492Z,2.80
2022-10-05T03:08:28.270Z,4.00
2022-10-05T03:11:12.432Z,3.00
2022-10-05T03:14:14.294Z,3.10
2022-10-05T03:17:09.812Z,3.40
2022-10-05T03:20:06.763Z,2.90
2022-10-05T03:22:57.246Z,2.80
2022-10-05T03:25:39.156Z,3.10
2022-10-05T03:28:37.677Z,3.80
2022-10-05T03:31:52.600Z,3.00
2022-10-05T03:34:55.193Z,2.80
2022-10-05T03:37:47.633Z,2.80
2022-10-05T03:40:30.132Z,3.40
2022-10-05T03:43:44.706Z,2.70
2022-10-05T03:46:36.408Z,3.00
2022-10-05T03:49:41.475Z,2.50
2022-10-05T03:52:19.678Z,3.00
2022-10-05T03:54:54.206Z,3.00
2022-10-05T03:57:35.282Z,3.10
2022-10-05T04:00:19.022Z,3.00
2022-10-05T04:03:08.498Z,2.70
2022-10-05T04:06:17.114Z,3.00
2022-10-05T04:09:02.492Z,3.60
2022-10-05T04:11:47.959Z,3.90
2022-10-05T04:14:29.563Z,2.50
2022-10-05T04:17:09.812Z,2.80
2022-10-05T04:19:55.633Z,3.20
2022-10-05T04:22:47.531Z,3.20
2022-10-05T04:25:27.985Z,3.00
2022-10-05T04:28:20.332Z,3.60
2022-10-05T04:30:58.776Z,3.10
2022-10-05T04:33:28.583Z,2.70
2022-10-05T04:36:18.541Z,3.60
2022-10-05T04:39:18.674Z,3.10
2022-10-05T04:42:11.819Z,3.50
2022-10-05T04:45:33.271Z,2.70
2022-10-05T04:48:08.813Z,3.10
2022-10-05T04:50:48.131Z,3.00
2022-10-05T04:53:39.491Z,3.10
2022-10-05T04:56:46.780Z,2.90
2022-10-05T04:59:45.438Z,2.80
2022-10-05T05:02:51.503Z,2.50
2022-10-05T05:05:48.377Z,2.70
2022-10-05T05:08:58.700Z,3.40
2022-10-05T05:11:51.973Z,2.10
2022-10-05T05:14:53.726Z,3.40
2022-10-05T05:17:29.934Z,3.10
2022-10-05T05:20:59.564Z,2.50
2022-10-05T05:23:42.011Z,2.60
2022-10-05T05:26:29.455Z,3.30
2022-10-05T05:29:17.497Z,2.80
2022-10-05T05:32:15.397Z,2.80
2022-10-05T05:37:37.907Z,3.40
2022-10-05T05:40:16.544Z,2.90
2022-10-05T05:43:10.005Z,2.70
2022-10-05T05:46:15.202Z,2.40
2022-10-05T05:48:48.841Z,2.50
2022-10-05T05:51:35.764Z,2.90
2022-10-05T05:54:18.601Z,2.30
2022-10-05T05:57:08.876Z,2.70
2022-10-05T06:00:08.283Z,3.10
2022-10-05T06:03:03.267Z,2.90
2022-10-05T06:05:39.580Z,3.20
2022-10-05T06:08:24.302Z,2.60
2022-10-05T06:11:07.632Z,2.60
2022-10-05T06:13:41.286Z,2.40
2022-10-05T06:16:24.323Z,2.60
2022-10-05T06:18:59.856Z,3.10
2022-10-05T06:22:11.527Z,3.00
2022-10-05T06:25:03.141Z,2.70
2022-10-05T06:27:41.038Z,2.70
2022-10-05T06:30:14.884Z,3.00
2022-10-05T06:33:03.125Z,2.60
2022-10-05T06:36:09.757Z,2.90
2022-10-05T06:38:48.889Z,3.90
2022-10-05T06:41:39.825Z,2.30
2022-10-05T06:44:20.157Z,2.90
2022-10-05T06:47:05.559Z,2.50
2022-10-05T06:54:04.452Z,3.30
2022-10-05T06:56:53.113Z,2.70
2022-10-05T06:59:47.313Z,2.90
2022-10-05T07:02:48.316Z,2.90
2022-10-05T07:05:58.263Z,2.60
2022-10-05T07:08:47.872Z,2.30
2022-10-05T07:11:37.153Z,2.30
2022-10-05T07:14:36.354Z,2.60
2022-10-05T07:17:22.755Z,3.40
2022-10-05T07:20:06.383Z,2.70
2022-10-05T07:22:46.037Z,2.80
2022-10-05T07:25:35.903Z,2.70
2022-10-05T07:28:32.934Z,2.80
2022-10-05T07:31:24.227Z,3.40
2022-10-05T07:34:03.613Z,3.20
2022-10-05T07:37:10.382Z,3.10
2022-10-05T07:40:09.315Z,2.80
2022-10-05T07:43:03.268Z,3.10
2022-10-05T07:45:48.884Z,2.70
2022-10-05T07:51:07.522Z,3.00
2022-10-05T07:53:42.037Z,2.60
2022-10-05T07:56:22.195Z,2.40
2022-10-05T07:59:03.172Z,2.70
2022-10-05T08:01:42.034Z,3.90
2022-10-05T08:04:41.872Z,2.30
2022-10-05T08:07:15.422Z,2.70
2022-10-05T08:09:56.078Z,2.80
2022-10-05T08:12:24.298Z,2.70
2022-10-05T08:15:21.107Z,2.20
2022-10-05T08:17:53.158Z,2.40
2022-10-05T08:20:56.949Z,3.00
2022-10-05T08:23:44.710Z,2.50
2022-10-05T08:27:05.923Z,2.40
2022-10-05T08:29:40.718Z,3.10
2022-10-05T08:32:29.177Z,3.00
2022-10-05T08:35:34.548Z,2.60
2022-10-05T08:38:12.034Z,2.40
2022-10-05T08:41:12.176Z,3.00
2022-10-05T08:44:11.069Z,2.50
2022-10-05T08:46:54.687Z,3.00
2022-10-05T08:49:37.372Z,2.40
2022-10-05T08:52:23.309Z,2.90
2022-10-05T08:55:14.623Z,2.80
2022-10-05T08:57:42.377Z,2.70
2022-10-05T09:00:20.653Z,3.10
2022-10-05T09:03:05.323Z,3.20
2022-10-05T09:06:13.692Z,2.30
2022-10-05T09:09:18.300Z,3.00
2022-10-05T09:12:01.107Z,2.50
2022-10-05T09:14:33.929Z,3.10
2022-10-05T09:17:11.298Z,2.80
2022-10-05T09:20:15.189Z,3.30
2022-10-05T09:22:59.042Z,3.10
2022-10-05T09:25:33.364Z,3.00
2022-10-05T09:28:33.212Z,3.20
2022-10-05T09:31:27.287Z,2.90
2022-10-05T09:34:04.149Z,2.80
2022-10-05T09:37:08.773Z,3.80
2022-10-05T09:40:04.892Z,2.80
2022-10-05T09:42:59.282Z,3.30
2022-10-05T09:45:50.529Z,3.10
2022-10-05T09:49:06.397Z,3.00
2022-10-05T09:52:08.878Z,3.00
2022-10-05T09:55:11.253Z,3.80
2022-10-05T09:57:53.298Z,3.30
2022-10-05T10:00:54.209Z,3.50
2022-10-05T10:04:06.753Z,2.40
2022-10-05T10:07:05.277Z,3.50
2022-10-05T10:10:05.816Z,2.60
2022-10-05T10:13:05.123Z,2.80
2022-10-05T10:15:48.413Z,2.80
2022-10-05T10:18:48.756Z,3.00
2022-10-05T10:21:33.138Z,2.60
2022-10-05T10:24:26.095Z,3.10
2022-10-05T10:27:34.500Z,3.90
2022-10-05T10:30:22.446Z,2.80
2022-10-05T10:33:28.815Z,3.00
2022-10-05T10:36:28.513Z,3.20
2022-10-05T10:39:38.078Z,2.60
2022-10-05T10:42:40.265Z,2.30
2022-10-05T10:45:28.297Z,2.30
2022-10-05T10:48:30.858Z,2.80
2022-10-05T10:51:35.915Z,3.30
2022-10-05T10:54:35.420Z,2.70
2022-10-05T10:57:10.095Z,3.10
2022-10-05T10:59:41.494Z,2.80
2022-10-05T11:02:47.419Z,2.80
2022-10-05T11:05:36.823Z,3.30
2022-10-05T11:08:33.552Z,3.00
2022-10-05T11:11:20.075Z,2.50
2022-10-05T11:14:11.283Z,3.00
2022-10-05T11:16:58.006Z,2.80
2022-10-05T11:20:09.232Z,2.70
2022-10-05T11:22:54.863Z,2.90
2022-10-05T11:25:45.767Z,2.90
2022-10-05T11:28:54.795Z,3.00
2022-10-05T11:34:21.075Z,3.10
2022-10-05T11:37:05.913Z,2.60
2022-10-05T11:39:55.071Z,3.10
2022-10-05T11:42:58.739Z,3.10
2022-10-05T11:45:58.737Z,3.00
2022-10-05T11:48:35.412Z,2.70
2022-10-05T11:51:14.937Z,2.30
2022-10-05T11:54:06.047Z,2.40
2022-10-05T11:56:39.471Z,2.30
2022-10-05T11:59:34.579Z,3.30
2022-10-05T12:02:33.732Z,2.40
2022-10-05T12:05:26.323Z,2.40
2022-10-05T12:08:17.691Z,2.50
2022-10-05T12:13:48.062Z,2.60
2022-10-05T12:16:41.664Z,3.20
2022-10-05T12:19:28.295Z,3.00
2022-10-05T12:22:18.214Z,2.90
2022-10-05T12:25:14.642Z,3.10
2022-10-05T12:27:47.173Z,2.50
2022-10-05T12:30:33.631Z,3.10
2022-10-05T12:33:24.360Z,2.80
2022-10-05T12:36:59.660Z,2.70
2022-10-05T12:39:37.587Z,2.60
2022-10-05T12:42:17.297Z,3.30
2022-10-05T12:47:35.481Z,4.20
2022-10-05T12:50:11.321Z,3.20
2022-10-05T12:52:45.187Z,2.80
2022-10-05T12:55:33.479Z,3.70
2022-10-05T12:58:16.498Z,4.20
2022-10-05T13:01:07.525Z,3.30
2022-10-05T13:03:43.864Z,3.60
2022-10-05T13:06:41.364Z,3.70
2022-10-05T13:09:20.124Z,4.20
2022-10-05T13:11:55.739Z,3.80
2022-10-05T13:14:56.664Z,3.70
2022-10-05T13:17:53.814Z,4.30
2022-10-05T13:20:56.894Z,4.20
2022-10-05T13:26:21.317Z,4.00
2022-10-05T13:31:35.771Z,4.10
2022-10-05T13:34:31.805Z,3.30
2022-10-05T13:37:20.272Z,4.40
2022-10-05T13:40:07.383Z,4.40
2022-10-05T13:42:45.731Z,3.70
2022-10-05T13:45:19.996Z,3.80
2022-10-05T13:48:06.522Z,3.40
2022-10-05T13:50:42.819Z,3.90
2022-10-05T13:53:13.153Z,4.30
2022-10-05T13:55:44.415Z,4.10
2022-10-05T13:58:42.947Z,3.60
2022-10-05T14:01:16.920Z,4.30
2022-10-05T14:04:06.336Z,4.30
2022-10-05T14:06:37.466Z,4.20
2022-10-05T14:09:10.765Z,4.50
2022-10-05T14:11:49.221Z,3.40
2022-10-05T14:14:26.556Z,3.80
2022-10-05T14:16:57.228Z,4.00
2022-10-05T14:19:26.845Z,3.90
2022-10-05T14:22:01.901Z,3.90
2022-10-05T14:24:44.043Z,4.30
2022-10-05T14:27:27.063Z,3.80
2022-10-05T14:29:58.571Z,4.70
2022-10-05T14:32:32.705Z,4.40
2022-10-05T14:35:14.994Z,4.10
2022-10-05T14:38:06.465Z,3.70
2022-10-05T14:40:38.363Z,4.10
2022-10-05T14:43:14.970Z,3.50
2022-10-05T14:45:58.567Z,3.90
2022-10-05T14:48:28.764Z,4.50
2022-10-05T14:51:03.854Z,4.20
2022-10-05T14:53:43.071Z,3.30
2022-10-05T14:56:32.041Z,3.40
2022-10-05T14:59:29.247Z,4.40
2022-10-05T15:02:19.454Z,4.90
2022-10-05T15:04:57.610Z,4.20
2022-10-05T15:07:38.658Z,5.40
2022-10-05T15:10:29.300Z,3.80
2022-10-05T15:13:25.370Z,4.80
2022-10-05T15:16:21.501Z,4.90
2022-10-05T15:19:31.287Z,4.30
2022-10-05T15:22:20.417Z,4.80
2022-10-05T15:24:51.589Z,4.20
2022-10-05T15:27:27.574Z,4.50
2022-10-05T15:29:55.607Z,4.00
2022-10-05T15:32:55.367Z,4.50
2022-10-05T15:35:38.630Z,3.70
2022-10-05T15:38:12.279Z,4.60
2022-10-05T15:40:49.646Z,4.20
2022-10-05T15:43:23.660Z,3.60
2022-10-05T15:45:57.844Z,4.60
2022-10-05T15:48:40.217Z,3.80
2022-10-05T15:51:28.366Z,4.30
2022-10-05T15:54:15.886Z,4.10
2022-10-05T15:56:55.100Z,3.90
2022-10-05T15:59:34.685Z,3.80
2022-10-05T16:02:14.530Z,4.20
2022-10-05T16:07:39.166Z,3.60
2022-10-05T16:13:33.901Z,3.90
2022-10-05T16:16:25.054Z,3.70
2022-10-05T16:19:07.204Z,4.00
2022-10-05T16:21:51.501Z,4.00
2022-10-05T16:24:41.751Z,4.40
2022-10-05T16:27:33.597Z,4.10
2022-10-05T16:30:08.728Z,3.70
2022-10-05T16:32:51.597Z,4.00
2022-10-05T16:35:56.477Z,3.40
2022-10-05T16:38:59.266Z,3.30
2022-10-05T16:41:42.702Z,3.90
2022-10-05T16:44:39.813Z,4.20
2022-10-05T16:47:27.547Z,4.10
2022-10-05T16:50:15.588Z,4.50
2022-10-05T16:52:51.006Z,4.00
2022-10-05T16:55:29.190Z,4.40
2022-10-05T16:57:59.478Z,4.10
2022-10-05T17:00:52.454Z,3.90
2022-10-05T17:03:19.925Z,4.10
2022-10-05T17:05:59.166Z,3.80
2022-10-05T17:08:59.929Z,4.10
2022-10-05T17:11:42.783Z,4.20
2022-10-05T17:14:20.285Z,3.80
2022-10-05T17:17:06.143Z,3.40
2022-10-05T17:19:39.990Z,3.00
2022-10-05T17:22:26.002Z,3.20
2022-10-05T17:25:18.086Z,3.50
2022-10-05T17:27:54.847Z,2.60
2022-10-05T17:30:50.240Z,3.30
2022-10-05T17:33:28.756Z,2.90
2022-10-05T17:36:04.777Z,3.20
2022-10-05T17:38:41.446Z,3.10
2022-10-05T17:41:19.135Z,3.20
2022-10-05T17:44:20.641Z,3.10
2022-10-05T17:47:07.987Z,3.20
2022-10-05T17:50:30.832Z,2.90
2022-10-05T17:53:40.216Z,3.20
2022-10-05T17:56:08.601Z,3.80
2022-10-05T18:01:36.558Z,2.90
2022-10-05T18:04:15.860Z,2.80
2022-10-05T18:06:52.475Z,2.90
2022-10-05T18:09:23.222Z,3.20
2022-10-05T18:12:11.550Z,3.10
2022-10-05T18:15:00.399Z,2.60
2022-10-05T18:17:37.222Z,3.00
2022-10-05T18:20:31.473Z,2.90
2022-10-05T18:23:06.959Z,2.70
2022-10-05T18:25:43.998Z,2.70
2022-10-05T18:28:45.760Z,3.10
2022-10-05T18:31:35.109Z,3.00
2022-10-05T18:34:13.078Z,2.70
2022-10-05T18:37:01.987Z,3.20
2022-10-05T18:40:03.983Z,6.20
2022-10-05T18:42:55.533Z,10.50
2022-10-05T18:46:05.278Z,3.50
2022-10-05T18:48:52.666Z,3.10
2022-10-05T18:51:52.548Z,2.40
2022-10-05T18:54:42.333Z,2.10
2022-10-05T18:57:40.475Z,2.40
2022-10-05T19:00:22.234Z,1.90
2022-10-05T19:03:03.064Z,2.10
2022-10-05T19:05:48.005Z,2.40
2022-10-05T19:08:35.896Z,2.50
2022-10-05T19:11:12.877Z,2.10
2022-10-05T19:14:21.545Z,2.20
2022-10-05T19:17:12.895Z,2.30
2022-10-05T19:20:17.916Z,2.10
2022-10-05T19:23:01.286Z,2.10
2022-10-05T19:26:13.283Z,2.20
2022-10-05T19:28:48.098Z,2.50
2022-10-05T19:31:29.744Z,2.20
2022-10-05T19:34:34.112Z,2.50
2022-10-05T19:37:34.253Z,2.30
2022-10-05T19:40:16.347Z,2.40
2022-10-05T19:43:02.028Z,2.60
2022-10-05T19:45:35.873Z,3.30
2022-10-05T19:48:35.595Z,2.30
2022-10-05T19:51:30.057Z,2.50
2022-10-05T19:54:02.160Z,3.70
2022-10-05T19:56:45.754Z,2.70
2022-10-05T19:59:22.003Z,2.50
2022-10-05T20:01:56.027Z,2.30
2022-10-05T20:04:36.412Z,2.80
2022-10-05T20:07:11.129Z,2.00
2022-10-05T20:10:02.172Z,2.50
2022-10-05T20:12:51.073Z,2.00
2022-10-05T20:15:40.815Z,2.20
2022-10-05T20:19:00.616Z,2.20
2022-10-05T20:21:47.963Z,2.00
2022-10-05T20:24:25.435Z,2.30
2022-10-05T20:27:02.299Z,2.10
2022-10-05T20:29:44.265Z,2.20
2022-10-05T20:32:17.945Z,2.60
2022-10-05T20:34:49.359Z,2.50
2022-10-05T20:37:18.834Z,2.40
2022-10-05T20:39:48.083Z,2.50
2022-10-05T20:42:16.152Z,2.10
2022-10-05T20:44:44.585Z,2.30
2022-10-05T20:49:42.310Z,2.40
2022-10-05T20:52:13.196Z,2.40
2022-10-05T20:57:21.072Z,2.30
2022-10-05T21:00:01.944Z,2.30
2022-10-05T21:02:33.123Z,2.50
2022-10-05T21:05:04.046Z,2.10
2022-10-05T21:07:34.275Z,2.10
2022-10-05T21:10:03.604Z,1.70
2022-10-05T21:12:38.163Z,2.30
2022-10-05T21:15:07.133Z,2.10
2022-10-05T21:17:38.611Z,1.80
2022-10-05T21:20:12.053Z,2.00
2022-10-05T21:22:39.886Z,2.40
2022-10-05T21:25:08.837Z,2.00
2022-10-05T21:27:36.637Z,2.20
2022-10-05T21:30:08.480Z,2.00
2022-10-05T21:32:40.611Z,2.00
2022-10-05T21:35:14.617Z,2.50
2022-10-05T21:37:46.607Z,1.90
2022-10-05T21:40:23.647Z,2.40
2022-10-05T21:42:51.459Z,2.00
2022-10-05T21:45:19.246Z,2.20
2022-10-05T21:47:47.287Z,2.20
2022-10-05T21:50:18.537Z,2.20
2022-10-05T21:52:46.127Z,2.30
2022-10-05T21:55:13.954Z,2.10
2022-10-05T21:57:43.365Z,1.80
2022-10-05T22:00:11.525Z,2.60
2022-10-05T22:02:39.039Z,2.20
2022-10-05T22:05:07.133Z,1.70
2022-10-05T22:07:38.207Z,2.00
2022-10-05T22:10:06.883Z,1.80
2022-10-05T22:12:37.646Z,1.90
2022-10-05T22:15:09.302Z,2.30
2022-10-05T22:17:42.216Z,2.30
2022-10-05T22:20:15.343Z,1.90
2022-10-05T22:22:52.597Z,2.50
2022-10-05T22:25:23.526Z,2.00
2022-10-05T22:27:51.627Z,2.50
2022-10-05T22:30:20.503Z,1.70
2022-10-05T22:32:51.487Z,1.90
2022-10-05T22:35:19.132Z,2.20
2022-10-05T22:37:46.776Z,2.50
2022-10-05T22:40:14.313Z,2.40
2022-10-05T22:42:42.294Z,2.10
2022-10-05T22:45:14.034Z,2.10
2022-10-05T22:47:44.941Z,2.00
2022-10-05T22:50:19.873Z,2.20
2022-10-05T22:52:53.323Z,2.10
2022-10-05T22:55:24.880Z,2.20
2022-10-05T22:57:52.640Z,2.20
2022-10-05T23:00:40.410Z,1.80
2022-10-05T23:03:16.345Z,2.00
2022-10-05T23:05:46.961Z,2.20
2022-10-05T23:08:16.093Z,2.20
2022-10-05T23:10:46.531Z,2.00
2022-10-05T23:13:17.980Z,1.90
2022-10-05T23:15:49.075Z,2.30
2022-10-05T23:18:17.537Z,1.70
2022-10-05T23:20:55.969Z,2.20
2022-10-05T23:23:27.216Z,1.90
2022-10-05T23:26:10.952Z,2.00
2022-10-05T23:28:46.724Z,1.90
2022-10-05T23:31:27.988Z,1.60
2022-10-05T23:33:56.072Z,2.20
2022-10-05T23:36:52.594Z,1.50
2022-10-05T23:39:42.976Z,1.60
2022-10-05T23:42:30.673Z,1.70
2022-10-05T23:45:24.496Z,2.00
2022-10-05T23:48:17.950Z,1.70
2022-10-05T23:51:01.846Z,1.40
2022-10-05T23:53:55.545Z,1.30
2022-10-05T23:56:25.667Z,1.80
2022-10-05T23:58:56.947Z,1.50
